createdAt,value
2019-05-29T00:02:18.386Z,100080.58
2019-05-29T00:05:22.653Z,100081.03
2019-05-29T00:08:26.659Z,100095.23
2019-05-29T00:11:30.597Z,100095.59
2019-05-29T00:14:34.558Z,100097.41
2019-05-29T00:17:38.569Z,100101.59
2019-05-29T00:20:42.594Z,100116.34
2019-05-29T00:23:46.889Z,100109.34
2019-05-29T00:26:50.888Z,100114.95
2019-05-29T00:29:55.557Z,100119.03
2019-05-29T00:32:59.874Z,100120.39
2019-05-29T00:36:04.196Z,100122.86
2019-05-29T00:39:08.745Z,100137.88
2019-05-29T00:42:13.251Z,100130.61
2019-05-29T00:45:19.473Z,100138.20
2019-05-29T00:48:23.749Z,100136.17
2019-05-29T00:51:27.761Z,100140.48
2019-05-29T00:54:32.380Z,100140.97
2019-05-29T00:57:36.600Z,100155.30
2019-05-29T01:00:40.630Z,100153.77
2019-05-29T01:03:44.660Z,100160.55
2019-05-29T01:06:49.268Z,100156.67
2019-05-29T01:09:53.214Z,100159.94
2019-05-29T01:12:57.809Z,100165.53
2019-05-29T01:16:01.957Z,100167.97
2019-05-29T01:19:23.837Z,100167.79
2019-05-29T01:22:27.854Z,100175.45
2019-05-29T01:25:31.941Z,100183.86
2019-05-29T01:28:36.119Z,100189.14
2019-05-29T01:31:40.063Z,100191.05
2019-05-29T01:34:44.015Z,100195.04
2019-05-29T01:37:48.163Z,100198.45
2019-05-29T01:40:52.364Z,100199.33
2019-05-29T01:43:56.652Z,100201.09
2019-05-29T01:47:01.025Z,100210.12
2019-05-29T01:50:05.778Z,100206.45
2019-05-29T01:53:10.083Z,100210.37
2019-05-29T01:56:15.474Z,100215.06
2019-05-29T01:59:20.161Z,100213.96
2019-05-29T02:02:24.387Z,100212.75
2019-05-29T02:05:28.604Z,100217.55
2019-05-29T02:08:32.800Z,100216.08
2019-05-29T02:11:37.094Z,100221.83
2019-05-29T02:14:41.353Z,100228.28
2019-05-29T02:17:45.607Z,100225.44
2019-05-29T02:20:49.921Z,100231.66
2019-05-29T02:23:54.129Z,100234.05
2019-05-29T02:26:58.551Z,100238.75
2019-05-29T02:30:02.680Z,100247.78
2019-05-29T02:33:06.718Z,100251.86
2019-05-29T02:36:11.008Z,100253.00
2019-05-29T02:39:15.519Z,100259.12
2019-05-29T02:42:20.972Z,100261.22
2019-05-29T02:45:49.256Z,100264.08
2019-05-29T02:48:31.797Z,100262.31
2019-05-29T02:51:35.885Z,100272.38
2019-05-29T02:54:39.901Z,100273.84
2019-05-29T02:57:44.153Z,100276.07
2019-05-29T03:00:52.740Z,100277.50
2019-05-29T03:03:57.128Z,100281.97
2019-05-29T03:07:01.402Z,100278.85
2019-05-29T03:10:06.449Z,100280.55
2019-05-29T03:13:10.793Z,100290.81
2019-05-29T03:16:15.001Z,100296.03
2019-05-29T03:19:19.004Z,100305.61
2019-05-29T03:22:24.131Z,100300.33
2019-05-29T03:25:28.454Z,100306.72
2019-05-29T03:28:34.800Z,100319.41
2019-05-29T03:31:46.577Z,100324.13
2019-05-29T03:34:46.742Z,100328.75
2019-05-29T03:37:50.471Z,100328.92
2019-05-29T03:40:54.857Z,100333.00
2019-05-29T03:43:58.730Z,100335.71
2019-05-29T03:47:02.770Z,100341.44
2019-05-29T03:50:07.255Z,100348.24
2019-05-29T03:53:11.588Z,100342.19
2019-05-29T03:56:16.205Z,100352.31
2019-05-29T03:59:20.729Z,100353.67
2019-05-29T04:02:24.757Z,100362.30
2019-05-29T04:05:29.141Z,100368.53
2019-05-29T04:08:35.528Z,100372.36
2019-05-29T04:11:40.479Z,100374.79
2019-05-29T04:14:44.752Z,100376.23
2019-05-29T04:17:49.319Z,100378.95
2019-05-29T04:20:53.504Z,100387.01
2019-05-29T04:24:00.294Z,100385.80
2019-05-29T04:27:05.109Z,100388.27
2019-05-29T04:30:09.936Z,100401.46
2019-05-29T04:33:13.884Z,100402.60
2019-05-29T04:36:18.143Z,100402.61
2019-05-29T04:39:22.072Z,100405.73
2019-05-29T04:42:26.017Z,100410.28
2019-05-29T04:45:30.888Z,100416.70
2019-05-29T04:48:36.142Z,100415.76
2019-05-29T04:51:40.680Z,100419.83
2019-05-29T04:54:44.888Z,100425.02
2019-05-29T04:57:50.905Z,100424.61
2019-05-29T05:00:59.050Z,100436.03
2019-05-29T05:04:01.417Z,100440.59
2019-05-29T05:07:05.761Z,100452.19
2019-05-29T05:10:10.294Z,100448.76
2019-05-29T05:13:14.241Z,100446.73
2019-05-29T05:16:18.532Z,100443.82
2019-05-29T05:19:22.461Z,100449.02
2019-05-29T05:22:26.506Z,100449.70
2019-05-29T05:25:34.403Z,100449.27
2019-05-29T05:28:38.640Z,100450.30
2019-05-29T05:31:43.023Z,100465.68
2019-05-29T05:34:47.107Z,100460.80
2019-05-29T05:37:51.267Z,100464.91
2019-05-29T05:40:55.245Z,100471.39
2019-05-29T05:43:59.441Z,100471.31
2019-05-29T05:47:03.419Z,100469.77
2019-05-29T05:50:07.770Z,100476.45
2019-05-29T05:53:11.847Z,100479.19
2019-05-29T05:56:15.825Z,100481.34
2019-05-29T05:59:19.949Z,100490.39
2019-05-29T06:02:24.371Z,100489.70
2019-05-29T06:05:28.432Z,100499.63
2019-05-29T06:08:33.970Z,100503.80
2019-05-29T06:11:38.336Z,100505.56
2019-05-29T06:14:42.828Z,100512.58
2019-05-29T06:18:10.194Z,100508.38
2019-05-29T06:20:53.424Z,100509.91
2019-05-29T06:23:57.618Z,100515.52
2019-05-29T06:27:01.571Z,100516.36
2019-05-29T06:30:06.272Z,100513.61
2019-05-29T06:33:10.693Z,100524.18
2019-05-29T06:36:15.140Z,100516.80
2019-05-29T06:39:19.178Z,100524.95
2019-05-29T06:42:23.712Z,100525.27
2019-05-29T06:45:32.291Z,100531.13
2019-05-29T06:48:44.828Z,100538.64
2019-05-29T06:51:43.461Z,100535.61
2019-05-29T06:54:48.205Z,100544.87
2019-05-29T06:57:52.172Z,100541.38
2019-05-29T07:00:56.565Z,100539.80
2019-05-29T07:04:11.416Z,100548.53
2019-05-29T07:07:06.575Z,100561.37
2019-05-29T07:10:11.153Z,100569.13
2019-05-29T07:13:15.670Z,100579.26
2019-05-29T07:16:19.929Z,100571.48
2019-05-29T07:19:32.773Z,100579.23
2019-05-29T07:22:29.889Z,100584.64
2019-05-29T07:25:34.120Z,100581.77
2019-05-29T07:28:55.482Z,100586.45
2019-05-29T07:31:45.035Z,100588.98
2019-05-29T07:35:01.886Z,100598.60
2019-05-29T07:37:55.091Z,100596.55
2019-05-29T07:40:59.034Z,100597.68
2019-05-29T07:44:03.733Z,100606.89
2019-05-29T07:47:09.989Z,100603.76
2019-05-29T07:50:13.757Z,100611.98
2019-05-29T07:53:17.877Z,100610.98
2019-05-29T07:56:23.299Z,100621.21
2019-05-29T07:59:28.693Z,100620.36
2019-05-29T08:02:33.189Z,100621.16
2019-05-29T08:05:37.183Z,100625.58
2019-05-29T08:08:41.588Z,100625.95
2019-05-29T08:11:45.720Z,100626.27
2019-05-29T08:14:50.274Z,100630.77
2019-05-29T08:17:54.871Z,100630.23
2019-05-29T08:20:58.950Z,100633.14
2019-05-29T08:24:02.930Z,100636.57
2019-05-29T08:27:07.002Z,100638.34
2019-05-29T08:30:11.423Z,100637.86
2019-05-29T08:33:15.428Z,100643.72
2019-05-29T08:36:19.777Z,100650.44
2019-05-29T08:39:35.361Z,100657.06
2019-05-29T08:42:29.645Z,100662.18
2019-05-29T08:45:33.671Z,100666.41
2019-05-29T08:48:38.275Z,100667.48
2019-05-29T08:51:43.891Z,100675.50
2019-05-29T08:54:48.110Z,100678.80
2019-05-29T08:57:52.529Z,100679.59
2019-05-29T09:00:56.545Z,100678.84
2019-05-29T09:04:01.145Z,100685.97
2019-05-29T09:07:05.178Z,100691.15
2019-05-29T09:10:10.171Z,100693.10
2019-05-29T09:13:14.443Z,100685.45
2019-05-29T09:16:18.741Z,100688.59
2019-05-29T09:19:22.885Z,100692.60
2019-05-29T09:22:26.876Z,100693.18
2019-05-29T09:25:31.630Z,100696.09
2019-05-29T09:28:35.653Z,100697.55
2019-05-29T09:31:39.939Z,100697.89
2019-05-29T09:34:47.582Z,100703.20
2019-05-29T09:37:50.333Z,100710.02
2019-05-29T09:40:54.703Z,100711.54
2019-05-29T09:44:00.372Z,100717.33
2019-05-29T09:47:04.709Z,100723.51
2019-05-29T09:50:08.741Z,100733.82
2019-05-29T09:53:12.949Z,100739.88
2019-05-29T09:56:17.045Z,100738.75
2019-05-29T09:59:20.973Z,100746.61
2019-05-29T10:02:25.238Z,100749.53
2019-05-29T10:05:29.251Z,100752.31
2019-05-29T10:08:33.270Z,100760.14
2019-05-29T10:11:37.433Z,100756.97
2019-05-29T10:14:41.792Z,100762.91
2019-05-29T10:17:46.423Z,100771.12
2019-05-29T10:20:50.695Z,100770.44
2019-05-29T10:23:56.665Z,100778.88
2019-05-29T10:27:02.708Z,100771.26
2019-05-29T10:30:07.630Z,100775.55
2019-05-29T10:33:11.821Z,100771.70
2019-05-29T10:36:16.253Z,100769.21
2019-05-29T10:39:20.234Z,100775.20
2019-05-29T10:42:24.595Z,100776.88
2019-05-29T10:45:29.035Z,100771.43
2019-05-29T10:48:33.069Z,100765.38
2019-05-29T10:51:37.764Z,100753.08
2019-05-29T10:54:41.733Z,100753.08
2019-05-29T10:57:46.635Z,100762.21
2019-05-29T11:00:51.352Z,100755.51
2019-05-29T11:03:55.908Z,100753.16
2019-05-29T11:07:00.618Z,100747.62
2019-05-29T11:10:05.359Z,100750.27
2019-05-29T11:13:09.435Z,100750.27
2019-05-29T11:16:13.617Z,100751.94
2019-05-29T11:19:17.980Z,100753.01
2019-05-29T11:22:26.102Z,100748.14
2019-05-29T11:25:28.685Z,100748.14
2019-05-29T11:28:32.625Z,100742.86
2019-05-29T11:31:36.641Z,100738.48
2019-05-29T11:34:40.512Z,100734.80
2019-05-29T11:37:44.780Z,100733.99
2019-05-29T11:40:52.289Z,100739.85
2019-05-29T11:43:54.931Z,100734.41
2019-05-29T11:47:00.697Z,100737.75
2019-05-29T11:50:18.609Z,100729.66
2019-05-29T11:53:12.529Z,100724.95
2019-05-29T11:56:16.806Z,100730.06
2019-05-29T11:59:20.885Z,100722.42
2019-05-29T12:02:25.209Z,100727.81
2019-05-29T12:05:29.641Z,100733.36
2019-05-29T12:08:34.025Z,100741.06
2019-05-29T12:11:38.467Z,100743.73
2019-05-29T12:14:58.805Z,100760.86
2019-05-29T12:17:48.570Z,100792.25
2019-05-29T12:20:53.963Z,100806.41
2019-05-29T12:23:58.540Z,100822.09
2019-05-29T12:27:02.869Z,100829.20
2019-05-29T12:30:08.278Z,100837.91
2019-05-29T12:33:12.206Z,100834.71
2019-05-29T12:36:17.082Z,100837.07
2019-05-29T12:39:21.168Z,100832.80
2019-05-29T12:42:25.124Z,100822.56
2019-05-29T12:45:29.155Z,100828.66
2019-05-29T12:48:33.192Z,100829.90
2019-05-29T12:51:37.245Z,100818.27
2019-05-29T12:54:41.282Z,100813.93
2019-05-29T12:57:45.908Z,100809.59
2019-05-29T13:00:50.252Z,100814.08
2019-05-29T13:03:54.273Z,100812.05
2019-05-29T13:06:58.927Z,100813.47
2019-05-29T13:10:02.961Z,100822.31
2019-05-29T13:13:11.047Z,100820.94
2019-05-29T13:16:13.743Z,100814.22
2019-05-29T13:19:18.067Z,100813.97
2019-05-29T13:22:22.407Z,100818.30
2019-05-29T13:25:26.399Z,100813.11
2019-05-29T13:28:30.408Z,100813.03
2019-05-29T13:31:35.046Z,100811.23
2019-05-29T13:34:39.925Z,100811.52
2019-05-29T13:37:43.955Z,100808.17
2019-05-29T13:40:47.948Z,100814.89
2019-05-29T13:43:51.965Z,100818.56
2019-05-29T13:46:55.913Z,100818.45
2019-05-29T13:50:05.492Z,100816.16
2019-05-29T13:53:07.445Z,100813.86
2019-05-29T13:56:11.881Z,100809.58
2019-05-29T13:59:16.200Z,100812.01
2019-05-29T14:02:21.160Z,100810.41
2019-05-29T14:05:25.432Z,100811.37
2019-05-29T14:08:29.535Z,100810.58
2019-05-29T14:11:33.828Z,100806.85
2019-05-29T14:14:37.864Z,100812.89
2019-05-29T14:17:42.237Z,100809.38
2019-05-29T14:20:46.361Z,100810.34
2019-05-29T14:23:50.680Z,100807.21
2019-05-29T14:26:54.719Z,100812.45
2019-05-29T14:30:01.003Z,100817.42
2019-05-29T14:33:06.819Z,100816.48
2019-05-29T14:36:11.492Z,100823.14
2019-05-29T14:39:15.562Z,100813.70
2019-05-29T14:42:19.593Z,100815.42
2019-05-29T14:45:23.879Z,100815.17
2019-05-29T14:48:28.184Z,100806.97
2019-05-29T14:51:32.430Z,100812.98
2019-05-29T14:54:41.962Z,100817.15
2019-05-29T14:57:42.988Z,100811.66
2019-05-29T15:00:46.987Z,100814.77
2019-05-29T15:03:51.883Z,100809.93
2019-05-29T15:06:55.790Z,100815.00
2019-05-29T15:10:00.055Z,100815.00
2019-05-29T15:13:04.421Z,100820.75
2019-05-29T15:16:09.118Z,100814.50
2019-05-29T15:19:13.355Z,100819.65
2019-05-29T15:22:17.230Z,100816.17
2019-05-29T15:25:24.438Z,100814.81
2019-05-29T15:28:27.707Z,100813.69
2019-05-29T15:31:31.776Z,100815.69
2019-05-29T15:34:36.150Z,100825.19
2019-05-29T15:37:40.226Z,100825.19
2019-05-29T15:40:44.549Z,100818.31
2019-05-29T15:43:49.387Z,100821.13
2019-05-29T15:46:53.772Z,100826.66
2019-05-29T15:49:57.775Z,100826.72
2019-05-29T15:53:02.133Z,100818.28
2019-05-29T15:56:18.294Z,100820.27
2019-05-29T15:59:14.227Z,100829.65
2019-05-29T16:02:18.188Z,100821.31
2019-05-29T16:05:22.394Z,100831.97
2019-05-29T16:08:26.477Z,100820.66
2019-05-29T16:11:30.720Z,100821.35
2019-05-29T16:14:34.680Z,100817.41
2019-05-29T16:17:39.112Z,100814.56
2019-05-29T16:20:43.278Z,100820.90
2019-05-29T16:23:47.556Z,100812.48
2019-05-29T16:26:51.607Z,100811.50
2019-05-29T16:29:56.115Z,100813.85
2019-05-29T16:33:00.131Z,100807.00
2019-05-29T16:36:04.559Z,100810.29
2019-05-29T16:39:08.774Z,100810.29
2019-05-29T16:42:13.968Z,100814.45
2019-05-29T16:45:18.765Z,100813.83
2019-05-29T16:48:23.019Z,100817.63
2019-05-29T16:51:27.690Z,100817.63
2019-05-29T16:54:31.726Z,100838.40
2019-05-29T16:57:36.024Z,100830.13
2019-05-29T17:00:40.445Z,100837.59
2019-05-29T17:03:45.028Z,100832.31
2019-05-29T17:06:49.302Z,100831.84
2019-05-29T17:09:53.358Z,100839.80
2019-05-29T17:12:58.050Z,100837.27
2019-05-29T17:16:02.162Z,100836.66
2019-05-29T17:19:06.267Z,100846.31
2019-05-29T17:22:11.035Z,100839.77
2019-05-29T17:25:16.819Z,100843.78
2019-05-29T17:28:24.303Z,100842.09
2019-05-29T17:31:27.377Z,100846.17
2019-05-29T17:34:31.757Z,100846.25
2019-05-29T17:37:35.993Z,100843.69
2019-05-29T17:40:40.020Z,100843.77
2019-05-29T17:43:44.350Z,100848.27
2019-05-29T17:46:48.747Z,100857.03
2019-05-29T17:49:52.692Z,100853.71
2019-05-29T17:52:57.011Z,100860.69
2019-05-29T17:56:01.042Z,100860.23
2019-05-29T17:59:05.247Z,100873.38
2019-05-29T18:02:09.893Z,100869.52
2019-05-29T18:05:16.388Z,100873.55
2019-05-29T18:08:20.777Z,100880.05
2019-05-29T18:11:25.280Z,100883.30
2019-05-29T18:14:29.480Z,100887.87
2019-05-29T18:17:33.774Z,100890.47
2019-05-29T18:20:37.905Z,100893.12
2019-05-29T18:23:41.764Z,100896.55
2019-05-29T18:26:59.198Z,100895.92
2019-05-29T18:30:02.863Z,100903.75
2019-05-29T18:33:06.899Z,100910.94
2019-05-29T18:36:11.152Z,100922.16
2019-05-29T18:39:15.157Z,100915.48
2019-05-29T18:42:20.378Z,100920.19
2019-05-29T18:45:26.172Z,100924.59
2019-05-29T18:48:32.545Z,100923.37
2019-05-29T18:51:36.379Z,100922.99
2019-05-29T18:54:40.916Z,100930.52
2019-05-29T18:57:45.605Z,100926.87
2019-05-29T19:00:49.658Z,100929.48
2019-05-29T19:03:53.926Z,100934.07
2019-05-29T19:06:58.470Z,100940.92
2019-05-29T19:10:06.275Z,100936.86
2019-05-29T19:13:08.285Z,100948.03
2019-05-29T19:16:13.083Z,100942.59
2019-05-29T19:19:16.954Z,100951.11
2019-05-29T19:22:22.250Z,100953.35
2019-05-29T19:25:26.840Z,100960.08
2019-05-29T19:28:30.878Z,100965.86
2019-05-29T19:31:34.820Z,100964.90
2019-05-29T19:34:39.131Z,100974.80
2019-05-29T19:37:43.281Z,100988.22
2019-05-29T19:40:47.400Z,100990.43
2019-05-29T19:43:51.510Z,100996.72
2019-05-29T19:46:55.530Z,101001.47
2019-05-29T19:49:59.540Z,101015.31
2019-05-29T19:53:03.502Z,101010.52
2019-05-29T19:56:07.664Z,101011.97
2019-05-29T19:59:11.786Z,101018.18
2019-05-29T20:02:15.875Z,101022.56
2019-05-29T20:05:19.958Z,101026.80
2019-05-29T20:08:23.971Z,101036.61
2019-05-29T20:11:29.358Z,101033.66
2019-05-29T20:14:34.086Z,101046.87
2019-05-29T20:17:38.726Z,101049.41
2019-05-29T20:20:43.280Z,101050.55
2019-05-29T20:23:47.604Z,101063.05
2019-05-29T20:26:51.627Z,101066.52
2019-05-29T20:29:56.247Z,101066.62
2019-05-29T20:33:00.162Z,101072.61
2019-05-29T20:36:04.446Z,101078.73
2019-05-29T20:39:08.681Z,101082.67
2019-05-29T20:42:12.711Z,101082.95
2019-05-29T20:45:17.852Z,101083.60
2019-05-29T20:48:22.557Z,101088.19
2019-05-29T20:51:26.590Z,101089.77
2019-05-29T20:54:31.596Z,101094.01
2019-05-29T20:57:35.926Z,101087.84
2019-05-29T21:00:40.480Z,101092.97
2019-05-29T21:03:44.796Z,101098.44
2019-05-29T21:06:48.817Z,101104.83
2019-05-29T21:09:53.021Z,101110.25
2019-05-29T21:12:57.329Z,101106.31
2019-05-29T21:16:01.342Z,101101.92
2019-05-29T21:19:05.364Z,101098.83
2019-05-29T21:22:09.388Z,101105.27
2019-05-29T21:25:18.572Z,101101.37
2019-05-29T21:28:20.345Z,101108.32
2019-05-29T21:31:24.598Z,101111.19
2019-05-29T21:34:29.116Z,101111.49
2019-05-29T21:37:33.361Z,101115.84
2019-05-29T21:40:38.284Z,101117.48
2019-05-29T21:43:42.746Z,101122.56
2019-05-29T21:46:47.275Z,101120.48
2019-05-29T21:49:51.583Z,101129.11
2019-05-29T21:52:55.633Z,101133.20
2019-05-29T21:55:59.920Z,101130.19
2019-05-29T21:59:04.506Z,101123.66
2019-05-29T22:02:09.108Z,101125.13
2019-05-29T22:05:14.239Z,101126.98
2019-05-29T22:08:18.957Z,101123.05
2019-05-29T22:11:23.036Z,101134.99
2019-05-29T22:14:27.380Z,101130.66
2019-05-29T22:17:31.342Z,101130.73
2019-05-29T22:20:35.461Z,101133.87
2019-05-29T22:23:39.741Z,101135.26
2019-05-29T22:26:43.879Z,101136.65
2019-05-29T22:29:48.300Z,101134.09
2019-05-29T22:32:53.287Z,101142.32
2019-05-29T22:35:57.550Z,101152.33
2019-05-29T22:39:01.867Z,101152.36
2019-05-29T22:42:06.020Z,101145.45
2019-05-29T22:45:11.420Z,101148.47
2019-05-29T22:48:15.426Z,101147.05
2019-05-29T22:51:19.490Z,101143.09
2019-05-29T22:54:23.462Z,101147.34
2019-05-29T22:57:28.015Z,101148.02
2019-05-29T23:00:32.029Z,101145.86
2019-05-29T23:03:36.651Z,101147.03
2019-05-29T23:06:40.663Z,101150.41
2019-05-29T23:09:44.668Z,101148.77
2019-05-29T23:12:48.608Z,101148.55
2019-05-29T23:15:54.401Z,101148.66
2019-05-29T23:18:58.754Z,101147.87
2019-05-29T23:22:02.939Z,101148.47
2019-05-29T23:25:07.465Z,101144.97
2019-05-29T23:28:11.480Z,101152.26
2019-05-29T23:31:15.421Z,101149.32
2019-05-29T23:34:19.672Z,101149.44
2019-05-29T23:37:23.676Z,101156.89
2019-05-29T23:40:27.700Z,101154.79
2019-05-29T23:43:31.785Z,101158.53
2019-05-29T23:46:36.144Z,101151.23
2019-05-29T23:49:40.843Z,101145.64
2019-05-29T23:52:44.872Z,101149.52
2019-05-29T23:55:49.114Z,101149.02
2019-05-29T23:58:53.627Z,101150.86
